Nearby METAR Reports

 

NZCH - Christchurch, Canterbury, New Zealand
Distance from station: NNE 464km
Updated: 21/09/2018 13:00
Mostly cloudy
Mostly cloudy
 Wind from SSW
Wind: SSW 26 km/h
Temperature: 13°C
Dew Point: 9°C
Humidity: 77%
Barometer: 1009 hPa
Clouds: Mostly cloudy
Visibility: 10 km
Cloud details: Mostly cloudy 640 m
2018/09/21 01:00 NZCH 210100Z AUTO 21014KT 9999 BKN021/// 13/09 Q1009 NOSIG
NZWN - Wellington, Wellington, New Zealand
Distance from station: NNE 772km
Updated: 21/09/2018 13:00
Clear
Clear
 Wind from N
Wind: N 9 km/h
Temperature: 16°C
Dew Point: 9°C
Humidity: 63%
Barometer: 1006 hPa
Clouds: Clear
Visibility: 10 km
2018/09/21 01:00 NZWN 210100Z AUTO 35005KT 300V020 9999 NCD 16/09 Q1006 NOSIG
NZAA - Auckland, Auckland, New Zealand
Distance from station: NNE 1191km
Updated: 21/09/2018 13:00
Overcast
Overcast
 Wind from SW
Wind: SW 7 km/h
Temperature: 16°C
Dew Point: 11°C
Humidity: 72%
Barometer: 1007 hPa
Clouds: Overcast
Visibility: 10 km
Cloud details: Overcast 1341 m
2018/09/21 01:00 NZAA 210100Z AUTO 22004KT 180V270 9999 OVC044/// 16/11 Q1007 NOSIG